Time;durP1;ratioP1;P1;durP2;ratioP2;P2;SDS_P1;SDS_P2;PMS_P1;PMS_P2;Temp;Humidity;BMP_temperature;BMP_pressure;BME280_temperature;BME280_humidity;BME280_pressure;Samples;Min_cycle;Max_cycle;Signal;HPM_P1;HPM_P2
2022/01/12 00:05:06;;;;;;;2.87;2.67;;;17.40;64.50;;;;;;10399223;28;20240;-67
2022/01/12 00:10:28;;;;;;;2.57;2.27;;;17.30;64.40;;;;;;10389793;28;20271;-68
2022/01/12 00:15:52;;;;;;;3.83;2.87;;;17.40;64.50;;;;;;10394242;28;20707;-69
2022/01/12 00:21:14;;;;;;;3.37;2.60;;;17.40;64.50;;;;;;10404859;28;20259;-67
2022/01/12 00:33:07;;;;;;;3.50;2.53;;;17.40;64.40;;;;;;10400289;28;20210;-67
2022/01/12 00:38:04;;;;;;;3.10;2.50;;;17.40;64.50;;;;;;10389212;28;20630;-67
2022/01/12 00:43:29;;;;;;;3.73;2.70;;;17.40;64.40;;;;;;10390443;28;20676;-68
2022/01/12 00:48:55;;;;;;;2.67;2.40;;;17.40;64.50;;;;;;10393999;28;20218;-67
2022/01/12 00:54:18;;;;;;;3.63;2.53;;;17.40;64.50;;;;;;10401151;28;20219;-67
2022/01/12 00:59:40;;;;;;;2.80;2.50;;;17.40;64.50;;;;;;10396594;28;20197;-66
2022/01/12 01:05:04;;;;;;;2.87;2.27;;;17.30;64.40;;;;;;10397484;28;20696;-67
2022/01/12 01:10:36;;;;;;;2.80;2.30;;;17.30;64.30;;;;;;10388988;28;20213;-67
2022/01/12 01:16:12;;;;;;;2.77;2.33;;;17.40;64.50;;;;;;10375828;28;20254;-67
2022/01/12 01:27:15;;;;;;;3.27;2.40;;;17.30;65.00;;;;;;10440330;28;20221;-67
2022/01/12 01:32:38;;;;;;;3.47;2.40;;;17.30;64.40;;;;;;10426192;28;20263;-67
2022/01/12 01:38:02;;;;;;;2.60;2.20;;;17.30;64.40;;;;;;10401774;28;20214;-67
2022/01/12 01:43:39;;;;;;;2.50;2.30;;;17.30;64.30;;;;;;10374260;28;20217;-67
2022/01/12 01:54:42;;;;;;;2.97;1.90;;;17.30;64.40;;;;;;10373882;28;20590;-69
2022/01/12 02:00:08;;;;;;;2.70;2.20;;;17.30;64.40;;;;;;10383475;28;20198;-67
2022/01/12 02:05:31;;;;;;;3.20;2.23;;;17.30;64.30;;;;;;10414937;28;20222;-68
2022/01/12 02:10:57;;;;;;;2.83;2.13;;;17.30;64.40;;;;;;10444269;28;20189;-67
2022/01/12 02:16:24;;;;;;;2.73;2.40;;;17.30;64.30;;;;;;10397658;28;20637;-67
2022/01/12 02:55:50;;;;;;;2.40;2.10;;;17.40;64.40;;;;;;10399729;28;20356;-67
2022/01/12 03:07:04;;;;;;;2.50;1.93;;;17.30;64.30;;;;;;10398959;28;20848;-67
2022/01/12 03:12:28;;;;;;;2.73;2.10;;;17.30;64.40;;;;;;10397081;28;20221;-67
2022/01/12 03:17:50;;;;;;;2.73;2.10;;;17.30;64.30;;;;;;10400159;28;20596;-68
2022/01/12 03:23:14;;;;;;;4.03;2.47;;;17.30;64.30;;;;;;10411327;28;20204;-67
2022/01/12 03:28:39;;;;;;;2.50;2.10;;;17.30;64.30;;;;;;10446971;28;20228;-67
2022/01/12 03:34:07;;;;;;;2.83;1.90;;;17.30;64.30;;;;;;10451919;28;20212;-67
2022/01/12 03:39:29;;;;;;;3.17;2.17;;;17.30;64.30;;;;;;10449942;28;20195;-67
2022/01/12 03:44:53;;;;;;;2.33;2.13;;;17.30;64.30;;;;;;10443717;28;20589;-68
2022/01/12 03:50:15;;;;;;;2.07;1.80;;;17.30;64.30;;;;;;10411124;28;20198;-67
2022/01/12 03:55:37;;;;;;;3.83;2.17;;;17.30;64.30;;;;;;10412586;28;20225;-68
2022/01/12 04:01:01;;;;;;;2.07;1.83;;;17.30;64.30;;;;;;10451076;28;20197;-66
2022/01/12 04:12:03;;;;;;;3.17;2.10;;;17.30;64.30;;;;;;10445979;28;20587;-67
2022/01/12 04:17:27;;;;;;;2.70;2.03;;;17.30;64.40;;;;;;10439906;28;20222;-66
2022/01/12 04:28:30;;;;;;;2.33;1.83;;;17.30;64.40;;;;;;10450373;28;20220;-68
2022/01/12 04:33:53;;;;;;;2.50;1.47;;;17.30;64.30;;;;;;10417973;28;20244;-67
2022/01/12 04:39:16;;;;;;;2.80;2.10;;;17.30;64.30;;;;;;10416338;28;20208;-68
2022/01/12 04:44:44;;;;;;;2.33;1.90;;;17.30;64.30;;;;;;10417494;28;20210;-67
2022/01/12 04:50:08;;;;;;;2.37;1.93;;;17.30;64.20;;;;;;10415612;28;20193;-67
2022/01/12 04:55:31;;;;;;;2.20;1.87;;;17.30;64.40;;;;;;10453027;28;20221;-69
2022/01/12 05:00:56;;;;;;;2.47;1.83;;;17.30;64.40;;;;;;10456945;28;20197;-67
2022/01/12 05:06:37;;;;;;;2.60;1.83;;;17.30;64.40;;;;;;10422494;28;20206;-68
2022/01/12 05:17:38;;;;;;;2.23;1.70;;;17.30;64.30;;;;;;10442031;28;20216;-67
2022/01/12 05:23:02;;;;;;;2.47;1.70;;;17.30;64.20;;;;;;10456586;28;20192;-67
2022/01/12 05:28:25;;;;;;;2.30;1.83;;;17.40;64.30;;;;;;10433556;28;20711;-67
2022/01/12 05:33:48;;;;;;;2.63;1.90;;;17.40;64.20;;;;;;10416118;28;20596;-68
2022/01/12 05:39:12;;;;;;;1.93;1.73;;;17.40;64.20;;;;;;10414983;28;20213;-67
2022/01/12 05:44:36;;;;;;;1.87;1.53;;;17.40;64.30;;;;;;10409863;28;20217;-69
2022/01/12 05:49:58;;;;;;;1.93;1.73;;;17.40;64.30;;;;;;10455466;28;20185;-68
2022/01/12 05:55:22;;;;;;;2.67;1.60;;;17.40;64.40;;;;;;10454805;28;20243;-67
2022/01/12 06:00:45;;;;;;;2.13;1.77;;;17.40;64.40;;;;;;10454566;28;20204;-68
2022/01/12 06:06:07;;;;;;;1.73;1.63;;;17.40;64.40;;;;;;10454470;28;20216;-67
2022/01/12 06:11:31;;;;;;;2.30;1.80;;;17.40;64.40;;;;;;10434020;28;20190;-66
2022/01/12 06:16:53;;;;;;;1.47;1.37;;;17.40;64.40;;;;;;10410821;28;20739;-66
2022/01/12 06:22:15;;;;;;;1.63;1.50;;;17.40;64.40;;;;;;10400018;28;20248;-67
2022/01/12 06:27:48;;;;;;;1.90;1.70;;;17.30;64.40;;;;;;10433800;28;20696;-67
2022/01/12 06:33:10;;;;;;;3.10;2.40;;;17.40;64.40;;;;;;10454721;28;20332;-67
2022/01/12 06:38:32;;;;;;;2.67;2.00;;;17.40;64.40;;;;;;10434099;28;20221;-65
2022/01/12 06:43:56;;;;;;;2.97;1.70;;;17.30;64.40;;;;;;10411842;28;20575;-67
2022/01/12 06:49:19;;;;;;;2.40;2.10;;;17.40;64.40;;;;;;10446595;28;20587;-67
2022/01/12 06:54:41;;;;;;;2.67;2.10;;;17.40;64.40;;;;;;10425965;28;20922;-67
2022/01/12 07:00:06;;;;;;;2.20;1.73;;;17.40;64.40;;;;;;10411038;28;20209;-67
2022/01/12 07:05:28;;;;;;;4.30;2.80;;;17.40;64.60;;;;;;10417203;28;20217;-68
2022/01/12 07:10:51;;;;;;;4.20;3.50;;;17.40;64.30;;;;;;10398000;22;20237;-68
2022/01/12 07:16:14;;;;;;;5.73;4.17;;;17.30;63.70;;;;;;10403905;28;20240;-68
2022/01/12 07:21:37;;;;;;;6.57;4.77;;;17.40;63.20;;;;;;10406380;28;20198;-68
2022/01/12 07:26:59;;;;;;;6.60;4.77;;;17.40;62.70;;;;;;10405947;28;20210;-68
2022/01/12 07:32:23;;;;;;;5.90;4.20;;;17.30;62.10;;;;;;10407073;28;20579;-67
2022/01/12 07:37:45;;;;;;;5.23;4.33;;;17.40;62.40;;;;;;10408162;28;20222;-68
2022/01/12 07:43:08;;;;;;;3.90;3.20;;;17.30;62.00;;;;;;10408337;28;20201;-66
2022/01/12 07:48:31;;;;;;;4.77;3.60;;;17.30;62.90;;;;;;10404383;28;20197;-67
2022/01/12 07:53:54;;;;;;;4.70;3.30;;;17.30;62.50;;;;;;10407743;28;20248;-68
2022/01/12 07:59:17;;;;;;;3.87;2.70;;;17.30;62.70;;;;;;10395432;28;20212;-68
2022/01/12 08:04:41;;;;;;;4.40;3.00;;;17.30;62.90;;;;;;10425132;28;20217;-68
2022/01/12 08:10:05;;;;;;;2.90;2.37;;;17.30;63.00;;;;;;10415749;28;20213;-67
2022/01/12 08:15:27;;;;;;;3.63;2.77;;;17.30;63.10;;;;;;10397861;28;20225;-68
2022/01/12 08:20:51;;;;;;;3.60;2.67;;;17.30;63.20;;;;;;10410582;28;20205;-68
2022/01/12 08:26:13;;;;;;;3.83;2.60;;;17.30;63.40;;;;;;10412316;28;20690;-68
2022/01/12 08:31:35;;;;;;;4.73;2.80;;;17.30;63.50;;;;;;10407394;28;20201;-68
2022/01/12 08:36:59;;;;;;;3.23;2.70;;;17.30;63.50;;;;;;10413191;28;20710;-69
2022/01/12 08:42:22;;;;;;;3.27;2.53;;;17.30;63.70;;;;;;10412619;28;20241;-68
2022/01/12 08:47:44;;;;;;;2.77;2.20;;;17.40;63.80;;;;;;10413977;28;20218;-67
2022/01/12 08:53:08;;;;;;;3.40;2.40;;;17.40;64.10;;;;;;10412017;28;20595;-68
2022/01/12 08:58:30;;;;;;;2.13;1.90;;;17.40;64.20;;;;;;10414164;28;20209;-68
2022/01/12 09:03:52;;;;;;;2.73;2.30;;;17.40;64.20;;;;;;10412744;28;20225;-68
2022/01/12 09:09:16;;;;;;;4.20;2.60;;;17.50;64.30;;;;;;10401155;28;20202;-69
2022/01/12 09:14:39;;;;;;;4.07;2.70;;;17.50;63.60;;;;;;10410889;28;20353;-68
2022/01/12 09:20:01;;;;;;;2.77;2.43;;;17.40;63.40;;;;;;10412172;28;20201;-67
2022/01/12 09:25:25;;;;;;;3.90;2.97;;;17.40;63.40;;;;;;10412194;28;20217;-69
2022/01/12 09:30:47;;;;;;;3.50;3.03;;;17.40;63.60;;;;;;10412610;28;20332;-67
2022/01/12 09:36:09;;;;;;;4.53;3.27;;;17.40;63.70;;;;;;10414688;28;20222;-67
2022/01/12 09:41:33;;;;;;;4.63;2.90;;;17.40;63.70;;;;;;10409715;28;20198;-67
2022/01/12 09:46:55;;;;;;;4.60;3.20;;;17.40;63.80;;;;;;10410483;28;20307;-67
2022/01/12 09:52:17;;;;;;;3.97;3.40;;;17.30;63.80;;;;;;10410369;28;20280;-67
2022/01/12 09:57:41;;;;;;;2.90;2.60;;;17.30;63.90;;;;;;10409498;28;20240;-67
2022/01/12 10:03:11;;;;;;;4.10;3.00;;;17.30;63.90;;;;;;10410115;28;20205;-67
2022/01/12 10:08:36;;;;;;;4.10;3.03;;;17.40;63.90;;;;;;10409917;28;20206;-67
2022/01/12 10:14:02;;;;;;;4.40;2.80;;;17.30;64.00;;;;;;10393986;28;20240;-67
2022/01/12 10:19:29;;;;;;;4.47;3.13;;;17.30;64.20;;;;;;10408349;28;20190;-67
2022/01/12 10:24:51;;;;;;;4.03;3.17;;;17.30;64.10;;;;;;10408207;28;20217;-67
2022/01/12 10:30:22;;;;;;;5.20;3.17;;;17.30;64.20;;;;;;10400403;28;20540;-67
2022/01/12 10:35:44;;;;;;;4.07;3.07;;;17.40;64.20;;;;;;10407680;28;20221;-67
2022/01/12 10:41:07;;;;;;;4.13;2.97;;;17.30;64.20;;;;;;10408152;28;20201;-67
2022/01/12 10:46:31;;;;;;;2.57;2.23;;;17.40;64.40;;;;;;10406250;28;20217;-67
2022/01/12 10:51:57;;;;;;;4.83;3.20;;;17.40;64.40;;;;;;10407513;28;20216;-67
2022/01/12 10:57:24;;;;;;;3.60;2.60;;;17.40;64.50;;;;;;10407653;28;20230;-67
2022/01/12 11:02:51;;;;;;;3.97;3.03;;;17.40;64.50;;;;;;10404571;28;20663;-67
2022/01/12 11:08:13;;;;;;;4.03;3.03;;;17.30;64.40;;;;;;10407745;28;20599;-67
2022/01/12 11:13:36;;;;;;;3.57;2.70;;;17.40;64.50;;;;;;10407199;28;20245;-67
2022/01/12 11:19:01;;;;;;;3.70;2.80;;;17.30;64.50;;;;;;10404394;28;20285;-67
2022/01/12 11:24:25;;;;;;;2.97;2.07;;;17.40;64.90;;;;;;10402626;28;20222;-66
2022/01/12 11:29:47;;;;;;;3.70;2.77;;;17.40;65.10;;;;;;10391007;28;20216;-67
2022/01/12 11:35:11;;;;;;;2.80;2.30;;;17.40;65.00;;;;;;10406474;28;20229;-68
2022/01/12 11:40:38;;;;;;;3.07;2.77;;;17.40;64.90;;;;;;10403537;28;20235;-67
2022/01/12 11:46:04;;;;;;;2.93;2.47;;;17.50;64.80;;;;;;10394339;28;20300;-69
2022/01/12 11:51:36;;;;;;;4.40;2.77;;;17.50;64.80;;;;;;10406507;28;20196;-68
2022/01/12 11:57:00;;;;;;;4.97;3.30;;;17.60;64.60;;;;;;10404586;28;20222;-67
2022/01/12 12:02:33;;;;;;;5.93;4.03;;;17.50;64.60;;;;;;10407684;28;20204;-67
2022/01/12 12:08:01;;;;;;;5.33;3.63;;;17.60;64.50;;;;;;10406237;28;20347;-67
2022/01/12 12:13:23;;;;;;;5.97;3.80;;;17.50;64.50;;;;;;10406470;28;20205;-68
2022/01/12 12:18:46;;;;;;;5.33;3.73;;;17.50;64.40;;;;;;10405497;28;20197;-68
2022/01/12 12:24:15;;;;;;;7.20;4.23;;;17.50;64.30;;;;;;10391153;28;20240;-68
2022/01/12 12:29:38;;;;;;;6.07;4.47;;;17.60;64.30;;;;;;10406089;28;20201;-69
2022/01/12 12:35:02;;;;;;;5.53;4.07;;;17.50;64.30;;;;;;10405258;28;20233;-68
2022/01/12 12:40:28;;;;;;;6.43;3.80;;;17.50;64.30;;;;;;10407010;28;20221;-66
2022/01/12 12:45:54;;;;;;;5.33;3.57;;;17.50;64.30;;;;;;10409991;28;20682;-69
2022/01/12 12:51:17;;;;;;;6.78;4.43;;;17.50;64.40;;;;;;10411537;28;20523;-67
2022/01/12 12:56:42;;;;;;;5.53;3.60;;;17.80;63.10;;;;;;10413052;28;20256;-67
2022/01/12 13:02:11;;;;;;;6.33;3.83;;;17.70;63.90;;;;;;10412003;28;20241;-67
2022/01/12 13:07:37;;;;;;;4.70;3.27;;;17.60;64.20;;;;;;10412774;28;20221;-67
2022/01/12 13:13:03;;;;;;;4.90;3.53;;;17.60;64.30;;;;;;10411102;28;20227;-67
2022/01/12 13:18:25;;;;;;;3.93;2.87;;;17.60;64.40;;;;;;10411797;28;20232;-67
2022/01/12 13:23:49;;;;;;;5.10;3.47;;;17.60;64.40;;;;;;10395807;28;20213;-68
2022/01/12 13:29:14;;;;;;;7.57;3.80;;;17.60;64.40;;;;;;10411656;28;20209;-67
2022/01/12 13:34:42;;;;;;;5.40;3.23;;;17.60;64.40;;;;;;10410386;28;20229;-66
2022/01/12 13:40:06;;;;;;;4.70;2.90;;;17.60;64.50;;;;;;10412304;28;20954;-68
2022/01/12 13:45:38;;;;;;;3.97;2.97;;;17.60;64.50;;;;;;10410232;28;20748;-67
2022/01/12 13:51:03;;;;;;;3.93;3.07;;;17.60;64.50;;;;;;10400149;28;20201;-67
2022/01/12 13:56:34;;;;;;;5.07;3.07;;;17.60;64.60;;;;;;10411581;28;20243;-68
2022/01/12 14:02:00;;;;;;;5.43;3.73;;;17.60;64.50;;;;;;10398803;28;20281;-67
2022/01/12 14:07:22;;;;;;;5.47;3.50;;;17.60;64.40;;;;;;10409524;28;20247;-67
2022/01/12 14:12:49;;;;;;;4.83;3.07;;;17.50;64.30;;;;;;10403834;28;20209;-68
2022/01/12 14:18:19;;;;;;;5.70;3.17;;;17.50;64.30;;;;;;10404479;28;20217;-68
2022/01/12 14:23:42;;;;;;;3.53;2.90;;;17.50;64.50;;;;;;10408779;28;20194;-69
2022/01/12 14:29:04;;;;;;;5.03;3.63;;;17.40;64.60;;;;;;10409669;28;20233;-68
2022/01/12 14:34:28;;;;;;;7.23;3.57;;;17.50;64.60;;;;;;10392473;28;20218;-68
2022/01/12 14:39:50;;;;;;;3.90;3.50;;;17.50;64.50;;;;;;10398023;28;20198;-69
2022/01/12 14:45:15;;;;;;;4.03;3.20;;;17.40;64.40;;;;;;10408151;28;20221;-69
2022/01/12 14:50:38;;;;;;;5.67;3.40;;;17.40;64.40;;;;;;10395382;28;20253;-69
2022/01/12 14:56:02;;;;;;;5.33;3.33;;;17.40;64.20;;;;;;10407793;28;20683;-68
2022/01/12 15:01:24;;;;;;;4.47;3.13;;;17.50;64.20;;;;;;10408952;28;20201;-68
2022/01/12 15:06:48;;;;;;;4.67;3.67;;;17.40;64.30;;;;;;10414155;28;20216;-68
2022/01/12 15:12:15;;;;;;;5.90;3.00;;;17.40;64.20;;;;;;10384711;28;20221;-68
2022/01/12 15:17:38;;;;;;;4.40;2.60;;;17.50;64.90;;;;;;10397101;28;20253;-68
2022/01/12 15:23:02;;;;;;;3.23;2.57;;;17.50;65.10;;;;;;10407730;28;20197;-68
2022/01/12 15:28:24;;;;;;;4.77;2.70;;;17.50;65.10;;;;;;10402337;28;20753;-71
2022/01/12 15:33:48;;;;;;;3.77;2.57;;;17.50;65.00;;;;;;10406085;28;20217;-69
2022/01/12 15:39:11;;;;;;;4.63;3.00;;;17.50;64.80;;;;;;10406573;28;20200;-69
2022/01/12 15:44:33;;;;;;;3.27;2.57;;;17.50;64.90;;;;;;10398265;28;20213;-70
2022/01/12 15:49:56;;;;;;;4.87;3.10;;;17.50;64.80;;;;;;10411659;22;20221;-67
2022/01/12 15:55:19;;;;;;;3.83;2.60;;;17.50;64.80;;;;;;10406497;28;20319;-66
2022/01/12 16:00:42;;;;;;;4.03;2.70;;;17.50;64.70;;;;;;10393165;28;20220;-65
2022/01/12 16:06:04;;;;;;;4.23;3.00;;;17.60;64.80;;;;;;10402303;28;20229;-66
2022/01/12 16:11:28;;;;;;;4.13;2.80;;;17.50;64.70;;;;;;10399821;28;20198;-65
2022/01/12 16:16:50;;;;;;;4.27;2.80;;;17.60;64.70;;;;;;10397258;28;20230;-66
2022/01/12 16:22:13;;;;;;;4.33;3.00;;;17.50;64.60;;;;;;10409512;28;20198;-66
2022/01/12 16:27:36;;;;;;;4.43;2.90;;;17.50;64.60;;;;;;10415028;28;20593;-66
2022/01/12 16:32:59;;;;;;;4.50;2.60;;;17.60;64.60;;;;;;10412030;28;20190;-66
2022/01/12 16:38:21;;;;;;;4.37;2.97;;;17.50;64.60;;;;;;10412701;28;20810;-66
2022/01/12 16:43:45;;;;;;;3.17;2.20;;;17.50;64.60;;;;;;10412670;28;20694;-66
2022/01/12 16:49:07;;;;;;;3.53;2.93;;;17.60;64.50;;;;;;10414856;28;20199;-65
2022/01/12 16:54:29;;;;;;;3.30;2.13;;;17.60;65.10;;;;;;10414880;28;20232;-65
2022/01/12 16:59:53;;;;;;;2.73;2.40;;;17.60;64.50;;;;;;10402332;28;20197;-66
2022/01/12 17:05:15;;;;;;;2.73;2.20;;;17.60;64.50;;;;;;10412579;28;20609;-67
2022/01/12 17:10:37;;;;;;;3.93;2.40;;;17.50;64.50;;;;;;10408486;28;20205;-67
2022/01/12 17:16:37;;;;;;;3.13;2.30;;;17.60;64.50;;;;;;10412442;28;20356;-66
2022/01/12 17:22:00;;;;;;;3.37;2.63;;;17.60;64.30;;;;;;10413485;28;20200;-65
2022/01/12 17:27:23;;;;;;;3.83;2.23;;;17.60;64.50;;;;;;10397769;28;20219;-65
2022/01/12 17:32:45;;;;;;;5.63;2.60;;;17.60;64.60;;;;;;10397187;28;20271;-65
2022/01/12 17:38:10;;;;;;;3.37;2.43;;;17.60;64.50;;;;;;10412564;28;20233;-66
2022/01/12 17:43:32;;;;;;;3.60;2.27;;;17.60;64.50;;;;;;10415014;28;20205;-68
2022/01/12 17:49:06;;;;;;;3.70;2.70;;;17.60;64.50;;;;;;10390971;28;20553;-66
2022/01/12 17:54:29;;;;;;;3.40;2.33;;;17.60;64.50;;;;;;10409214;28;20352;-66
2022/01/12 17:59:52;;;;;;;4.03;2.43;;;17.60;64.60;;;;;;10411558;28;20201;-66
2022/01/12 18:05:14;;;;;;;2.97;2.33;;;17.60;64.80;;;;;;10413675;28;20232;-66
2022/01/12 18:10:38;;;;;;;4.80;2.92;;;17.60;64.90;;;;;;10411832;28;20425;-68
2022/01/12 18:16:07;;;;;;;3.67;2.57;;;18.00;63.60;;;;;;10410264;28;20217;-66
2022/01/12 18:21:29;;;;;;;4.57;2.87;;;17.80;64.40;;;;;;10396963;28;20595;-68
2022/01/12 18:26:53;;;;;;;3.57;2.30;;;17.70;64.80;;;;;;10409765;28;20667;-68
2022/01/12 18:32:18;;;;;;;4.03;2.87;;;17.60;65.00;;;;;;10409977;28;20198;-68
2022/01/12 18:37:40;;;;;;;3.70;2.50;;;17.70;65.10;;;;;;10409718;28;20226;-68
2022/01/12 18:43:04;;;;;;;3.97;2.77;;;17.60;65.10;;;;;;10392322;28;20205;-68
2022/01/12 18:48:26;;;;;;;3.80;2.57;;;17.60;65.10;;;;;;10410236;28;20687;-68
2022/01/12 18:53:48;;;;;;;6.70;3.03;;;17.70;65.20;;;;;;10409756;28;20569;-68
2022/01/12 18:59:13;;;;;;;4.77;2.80;;;17.60;65.20;;;;;;10409159;28;20437;-68
2022/01/12 19:04:35;;;;;;;5.20;3.13;;;17.80;64.60;;;;;;10398778;28;20295;-68
2022/01/12 19:09:57;;;;;;;5.00;2.83;;;17.80;65.00;;;;;;10368770;28;20194;-68
2022/01/12 19:15:21;;;;;;;5.10;3.10;;;17.70;65.20;;;;;;10394151;28;20233;-67
2022/01/12 19:20:43;;;;;;;5.37;2.93;;;17.60;65.10;;;;;;10397306;28;20325;-68
2022/01/12 19:26:05;;;;;;;4.07;2.73;;;17.60;65.10;;;;;;10395185;28;20222;-68
2022/01/12 19:31:29;;;;;;;8.93;2.97;;;17.60;65.10;;;;;;10397283;28;21162;-68
2022/01/12 19:36:51;;;;;;;6.00;3.30;;;17.50;65.10;;;;;;10399172;28;20221;-67
2022/01/12 19:42:13;;;;;;;4.37;2.90;;;17.50;65.00;;;;;;10398363;28;20212;-68
2022/01/12 19:47:37;;;;;;;6.53;3.20;;;17.50;65.10;;;;;;10399153;28;20691;-68
2022/01/12 19:53:08;;;;;;;5.47;2.90;;;17.50;65.00;;;;;;10394502;28;20210;-68
2022/01/12 19:58:36;;;;;;;3.63;2.63;;;17.50;64.90;;;;;;10400939;28;20814;-68
2022/01/12 20:04:04;;;;;;;4.20;2.50;;;17.50;65.00;;;;;;10392996;28;20730;-68
2022/01/12 20:09:32;;;;;;;4.97;2.80;;;17.50;65.00;;;;;;10398095;28;20194;-68
2022/01/12 20:14:54;;;;;;;4.60;3.00;;;17.50;65.00;;;;;;10395994;28;20213;-66
2022/01/12 20:26:39;;;;;;;4.67;2.80;;;17.50;64.80;;;;;;10388213;28;20746;-67
2022/01/12 20:32:03;;;;;;;4.63;2.57;;;17.50;65.10;;;;;;10395413;28;20194;-66
2022/01/12 20:37:27;;;;;;;4.30;2.50;;;17.50;65.10;;;;;;10396676;28;20228;-68
2022/01/12 20:42:50;;;;;;;4.53;2.70;;;17.50;65.10;;;;;;10396085;28;20190;-68
2022/01/12 20:48:13;;;;;;;4.20;2.93;;;17.50;65.10;;;;;;10395624;28;20218;-67
2022/01/12 20:53:35;;;;;;;3.80;2.33;;;17.40;65.00;;;;;;10393816;28;20202;-67
2022/01/12 20:58:58;;;;;;;3.47;2.63;;;17.50;65.10;;;;;;10400971;28;20560;-67
2022/01/12 21:04:20;;;;;;;4.40;2.40;;;17.50;65.10;;;;;;10408182;28;20687;-67
2022/01/12 21:09:42;;;;;;;3.67;2.30;;;17.50;65.10;;;;;;10409342;28;20202;-67
2022/01/12 21:15:07;;;;;;;5.40;2.50;;;17.50;65.10;;;;;;10416336;28;20595;-68
2022/01/12 21:20:29;;;;;;;3.43;2.57;;;17.40;65.00;;;;;;10425483;28;20658;-68
2022/01/12 21:25:52;;;;;;;4.33;2.47;;;17.50;65.70;;;;;;10440570;28;20214;-67
2022/01/12 21:31:15;;;;;;;4.20;2.47;;;17.50;65.10;;;;;;10414109;28;20197;-67
2022/01/12 21:36:37;;;;;;;2.97;2.43;;;17.50;65.10;;;;;;10414767;28;20225;-68
2022/01/12 21:42:00;;;;;;;4.07;2.50;;;17.50;65.10;;;;;;10412849;28;20241;-68
2022/01/12 21:47:23;;;;;;;3.10;2.40;;;17.50;65.00;;;;;;10413545;28;20209;-68
2022/01/12 21:52:46;;;;;;;3.83;2.10;;;17.50;65.10;;;;;;10459704;22;20251;-68
2022/01/12 21:58:08;;;;;;;3.77;2.20;;;17.40;65.00;;;;;;10446595;28;20592;-68
2022/01/12 22:03:32;;;;;;;3.03;2.30;;;17.40;65.00;;;;;;10422510;28;20225;-68
2022/01/12 22:08:54;;;;;;;5.67;3.03;;;17.40;65.00;;;;;;10412652;28;20190;-67
2022/01/12 22:14:16;;;;;;;3.40;2.67;;;17.40;65.00;;;;;;10411888;28;20739;-67
2022/01/12 22:19:43;;;;;;;4.23;2.83;;;17.40;64.90;;;;;;10405226;28;20589;-68
2022/01/12 22:25:06;;;;;;;6.40;2.80;;;17.40;64.90;;;;;;10415847;28;20193;-67
2022/01/12 22:30:28;;;;;;;4.23;2.63;;;17.40;64.90;;;;;;10411779;28;20209;-67
2022/01/12 22:35:51;;;;;;;5.47;3.13;;;17.40;64.90;;;;;;10408105;28;20244;-67
2022/01/12 22:41:14;;;;;;;4.30;2.63;;;17.40;65.00;;;;;;10372482;28;20685;-66
2022/01/12 22:46:36;;;;;;;4.93;2.60;;;17.40;64.90;;;;;;10371939;28;20194;-68
2022/01/12 22:51:59;;;;;;;3.50;2.70;;;17.40;64.90;;;;;;10412175;28;20701;-69
2022/01/12 22:57:29;;;;;;;4.60;3.13;;;17.40;64.90;;;;;;10411982;28;20214;-67
2022/01/12 23:02:51;;;;;;;3.80;2.67;;;17.40;64.90;;;;;;10410633;28;20735;-67
2022/01/12 23:08:15;;;;;;;5.60;3.10;;;17.40;64.90;;;;;;10380034;28;20210;-68
2022/01/12 23:26:14;;;;;;;5.03;3.17;;;17.40;64.70;;;;;;10409505;28;20181;-68
2022/01/12 23:31:37;;;;;;;3.80;2.50;;;17.40;64.90;;;;;;10405342;28;20229;-68
2022/01/12 23:42:54;;;;;;;4.27;3.30;;;17.40;65.00;;;;;;10403723;28;20245;-67
2022/01/12 23:48:33;;;;;;;4.63;2.83;;;17.30;64.80;;;;;;10409698;28;20201;-67
2022/01/12 23:59:37;;;;;;;4.77;3.30;;;17.40;64.90;;;;;;10377981;28;20214;-67
